sensor_id;sensor_type;location;lat;lon;timestamp;P1;durP1;ratioP1;P2;durP2;ratioP2
75620;SDS011;64574;48.506;-2.750;2023-03-31T00:01:17;17.20;;;4.00;;
75620;SDS011;64574;48.506;-2.750;2023-03-31T00:03:43;25.77;;;4.03;;
75620;SDS011;64574;48.506;-2.750;2023-03-31T00:06:10;24.02;;;4.10;;
75620;SDS011;64574;48.506;-2.750;2023-03-31T00:08:41;24.40;;;3.67;;
75620;SDS011;64574;48.506;-2.750;2023-03-31T00:11:07;25.98;;;3.58;;
75620;SDS011;64574;48.506;-2.750;2023-03-31T00:13:33;22.02;;;3.60;;
75620;SDS011;64574;48.506;-2.750;2023-03-31T00:16:05;25.65;;;4.38;;
75620;SDS011;64574;48.506;-2.750;2023-03-31T00:18:32;19.70;;;3.55;;
75620;SDS011;64574;48.506;-2.750;2023-03-31T00:21:04;23.25;;;3.63;;
75620;SDS011;64574;48.506;-2.750;2023-03-31T00:23:32;32.15;;;5.20;;
75620;SDS011;64574;48.506;-2.750;2023-03-31T00:25:58;26.88;;;4.20;;
75620;SDS011;64574;48.506;-2.750;2023-03-31T00:28:24;28.23;;;4.93;;
75620;SDS011;64574;48.506;-2.750;2023-03-31T00:30:49;28.55;;;3.35;;
75620;SDS011;64574;48.506;-2.750;2023-03-31T00:33:15;22.45;;;3.67;;
75620;SDS011;64574;48.506;-2.750;2023-03-31T00:35:41;27.45;;;4.70;;
75620;SDS011;64574;48.506;-2.750;2023-03-31T00:38:07;27.60;;;4.20;;
75620;SDS011;64574;48.506;-2.750;2023-03-31T00:40:33;17.33;;;3.53;;
75620;SDS011;64574;48.506;-2.750;2023-03-31T00:43:00;21.88;;;3.53;;
75620;SDS011;64574;48.506;-2.750;2023-03-31T00:45:27;23.63;;;3.75;;
75620;SDS011;64574;48.506;-2.750;2023-03-31T00:48:00;23.35;;;3.40;;
75620;SDS011;64574;48.506;-2.750;2023-03-31T00:50:34;22.70;;;3.70;;
75620;SDS011;64574;48.506;-2.750;2023-03-31T00:53:08;20.10;;;3.55;;
75620;SDS011;64574;48.506;-2.750;2023-03-31T00:55:44;26.35;;;3.67;;
75620;SDS011;64574;48.506;-2.750;2023-03-31T01:00:44;20.17;;;2.95;;
75620;SDS011;64574;48.506;-2.750;2023-03-31T01:03:13;22.77;;;3.13;;
75620;SDS011;64574;48.506;-2.750;2023-03-31T01:05:43;28.17;;;4.22;;
75620;SDS011;64574;48.506;-2.750;2023-03-31T01:08:14;29.58;;;4.35;;
75620;SDS011;64574;48.506;-2.750;2023-03-31T01:10:46;22.40;;;3.15;;
75620;SDS011;64574;48.506;-2.750;2023-03-31T01:13:14;26.75;;;4.05;;
75620;SDS011;64574;48.506;-2.750;2023-03-31T01:15:41;25.88;;;4.15;;
75620;SDS011;64574;48.506;-2.750;2023-03-31T01:18:07;25.10;;;4.00;;
75620;SDS011;64574;48.506;-2.750;2023-03-31T01:48:13;17.63;;;2.97;;
75620;SDS011;64574;48.506;-2.750;2023-03-31T01:58:43;23.85;;;4.22;;
75620;SDS011;64574;48.506;-2.750;2023-03-31T02:04:02;22.70;;;3.92;;
75620;SDS011;64574;48.506;-2.750;2023-03-31T02:06:42;22.90;;;4.10;;
75620;SDS011;64574;48.506;-2.750;2023-03-31T02:09:21;22.98;;;3.42;;
75620;SDS011;64574;48.506;-2.750;2023-03-31T02:11:51;26.98;;;3.97;;
75620;SDS011;64574;48.506;-2.750;2023-03-31T02:14:21;21.27;;;3.45;;
75620;SDS011;64574;48.506;-2.750;2023-03-31T02:16:51;22.15;;;4.03;;
75620;SDS011;64574;48.506;-2.750;2023-03-31T02:19:22;19.17;;;3.03;;
75620;SDS011;64574;48.506;-2.750;2023-03-31T02:21:51;20.02;;;3.00;;
75620;SDS011;64574;48.506;-2.750;2023-03-31T02:24:19;16.20;;;3.03;;
75620;SDS011;64574;48.506;-2.750;2023-03-31T02:26:49;15.65;;;2.67;;
75620;SDS011;64574;48.506;-2.750;2023-03-31T02:29:21;14.90;;;2.63;;
75620;SDS011;64574;48.506;-2.750;2023-03-31T02:32:47;14.90;;;3.20;;
75620;SDS011;64574;48.506;-2.750;2023-03-31T02:34:59;23.25;;;3.58;;
75620;SDS011;64574;48.506;-2.750;2023-03-31T02:37:27;15.68;;;2.42;;
75620;SDS011;64574;48.506;-2.750;2023-03-31T02:39:54;15.82;;;2.67;;
75620;SDS011;64574;48.506;-2.750;2023-03-31T02:42:22;15.07;;;2.17;;
75620;SDS011;64574;48.506;-2.750;2023-03-31T02:44:47;12.18;;;1.98;;
75620;SDS011;64574;48.506;-2.750;2023-03-31T02:47:14;11.25;;;1.88;;
75620;SDS011;64574;48.506;-2.750;2023-03-31T02:49:47;9.77;;;1.60;;
75620;SDS011;64574;48.506;-2.750;2023-03-31T02:58:14;8.30;;;1.70;;
75620;SDS011;64574;48.506;-2.750;2023-03-31T03:01:05;10.60;;;1.55;;
75620;SDS011;64574;48.506;-2.750;2023-03-31T03:03:45;9.27;;;1.75;;
75620;SDS011;64574;48.506;-2.750;2023-03-31T03:06:57;12.10;;;1.65;;
75620;SDS011;64574;48.506;-2.750;2023-03-31T03:09:44;12.10;;;1.85;;
75620;SDS011;64574;48.506;-2.750;2023-03-31T03:12:31;13.50;;;1.83;;
75620;SDS011;64574;48.506;-2.750;2023-03-31T03:15:38;16.15;;;2.03;;
75620;SDS011;64574;48.506;-2.750;2023-03-31T03:18:10;19.25;;;2.55;;
75620;SDS011;64574;48.506;-2.750;2023-03-31T03:20:36;21.90;;;3.25;;
75620;SDS011;64574;48.506;-2.750;2023-03-31T03:23:03;15.93;;;2.50;;
75620;SDS011;64574;48.506;-2.750;2023-03-31T03:25:29;22.25;;;3.30;;
75620;SDS011;64574;48.506;-2.750;2023-03-31T03:27:55;25.67;;;3.22;;
75620;SDS011;64574;48.506;-2.750;2023-03-31T03:30:20;33.42;;;3.38;;
75620;SDS011;64574;48.506;-2.750;2023-03-31T03:32:46;17.83;;;2.95;;
75620;SDS011;64574;48.506;-2.750;2023-03-31T03:35:12;13.25;;;2.47;;
75620;SDS011;64574;48.506;-2.750;2023-03-31T03:37:37;20.50;;;3.80;;
75620;SDS011;64574;48.506;-2.750;2023-03-31T03:40:04;20.67;;;3.15;;
75620;SDS011;64574;48.506;-2.750;2023-03-31T03:42:30;18.35;;;2.97;;
75620;SDS011;64574;48.506;-2.750;2023-03-31T03:44:56;16.85;;;2.95;;
75620;SDS011;64574;48.506;-2.750;2023-03-31T03:47:22;20.13;;;2.88;;
75620;SDS011;64574;48.506;-2.750;2023-03-31T03:49:48;22.30;;;3.63;;
75620;SDS011;64574;48.506;-2.750;2023-03-31T03:52:14;20.27;;;2.72;;
75620;SDS011;64574;48.506;-2.750;2023-03-31T03:54:40;22.63;;;3.05;;
75620;SDS011;64574;48.506;-2.750;2023-03-31T03:57:05;20.23;;;2.95;;
75620;SDS011;64574;48.506;-2.750;2023-03-31T03:59:31;20.42;;;3.42;;
75620;SDS011;64574;48.506;-2.750;2023-03-31T04:01:57;17.65;;;3.13;;
75620;SDS011;64574;48.506;-2.750;2023-03-31T04:04:22;16.08;;;2.88;;
75620;SDS011;64574;48.506;-2.750;2023-03-31T04:06:48;16.02;;;2.75;;
75620;SDS011;64574;48.506;-2.750;2023-03-31T04:09:14;15.55;;;2.65;;
75620;SDS011;64574;48.506;-2.750;2023-03-31T04:11:39;21.15;;;2.60;;
75620;SDS011;64574;48.506;-2.750;2023-03-31T04:14:05;16.52;;;3.22;;
75620;SDS011;64574;48.506;-2.750;2023-03-31T04:16:31;18.20;;;3.05;;
75620;SDS011;64574;48.506;-2.750;2023-03-31T04:18:58;20.08;;;3.25;;
75620;SDS011;64574;48.506;-2.750;2023-03-31T04:21:28;18.48;;;2.35;;
75620;SDS011;64574;48.506;-2.750;2023-03-31T04:23:54;18.90;;;2.47;;
75620;SDS011;64574;48.506;-2.750;2023-03-31T04:26:27;15.30;;;3.17;;
75620;SDS011;64574;48.506;-2.750;2023-03-31T04:29:06;14.43;;;2.63;;
75620;SDS011;64574;48.506;-2.750;2023-03-31T04:31:33;16.02;;;2.80;;
75620;SDS011;64574;48.506;-2.750;2023-03-31T04:34:02;20.27;;;3.03;;
75620;SDS011;64574;48.506;-2.750;2023-03-31T04:36:30;17.02;;;2.72;;
75620;SDS011;64574;48.506;-2.750;2023-03-31T04:38:58;18.60;;;3.00;;
75620;SDS011;64574;48.506;-2.750;2023-03-31T04:41:25;18.60;;;2.58;;
75620;SDS011;64574;48.506;-2.750;2023-03-31T04:43:54;17.90;;;3.03;;
75620;SDS011;64574;48.506;-2.750;2023-03-31T04:46:20;15.98;;;2.95;;
75620;SDS011;64574;48.506;-2.750;2023-03-31T04:48:46;16.38;;;2.38;;
75620;SDS011;64574;48.506;-2.750;2023-03-31T04:51:11;17.00;;;2.92;;
75620;SDS011;64574;48.506;-2.750;2023-03-31T04:53:39;16.60;;;2.55;;
75620;SDS011;64574;48.506;-2.750;2023-03-31T04:56:05;11.70;;;1.90;;
75620;SDS011;64574;48.506;-2.750;2023-03-31T04:58:31;20.00;;;2.85;;
75620;SDS011;64574;48.506;-2.750;2023-03-31T05:00:57;15.68;;;2.65;;
75620;SDS011;64574;48.506;-2.750;2023-03-31T05:03:23;18.20;;;2.40;;
75620;SDS011;64574;48.506;-2.750;2023-03-31T05:05:48;16.88;;;2.95;;
75620;SDS011;64574;48.506;-2.750;2023-03-31T05:08:14;19.75;;;2.72;;
75620;SDS011;64574;48.506;-2.750;2023-03-31T05:10:40;18.00;;;2.97;;
75620;SDS011;64574;48.506;-2.750;2023-03-31T05:13:07;14.93;;;2.72;;
75620;SDS011;64574;48.506;-2.750;2023-03-31T05:15:36;12.30;;;1.92;;
75620;SDS011;64574;48.506;-2.750;2023-03-31T05:18:02;13.73;;;2.53;;
75620;SDS011;64574;48.506;-2.750;2023-03-31T05:20:28;19.30;;;2.67;;
75620;SDS011;64574;48.506;-2.750;2023-03-31T05:22:54;21.17;;;2.83;;
75620;SDS011;64574;48.506;-2.750;2023-03-31T05:25:19;15.80;;;2.38;;
75620;SDS011;64574;48.506;-2.750;2023-03-31T05:27:46;14.60;;;2.60;;
75620;SDS011;64574;48.506;-2.750;2023-03-31T05:30:13;12.73;;;2.20;;
75620;SDS011;64574;48.506;-2.750;2023-03-31T05:35:05;26.50;;;2.88;;
75620;SDS011;64574;48.506;-2.750;2023-03-31T05:37:31;11.95;;;2.60;;
75620;SDS011;64574;48.506;-2.750;2023-03-31T05:39:57;13.45;;;2.45;;
75620;SDS011;64574;48.506;-2.750;2023-03-31T05:42:23;11.95;;;1.92;;
75620;SDS011;64574;48.506;-2.750;2023-03-31T05:44:48;9.98;;;1.80;;
75620;SDS011;64574;48.506;-2.750;2023-03-31T05:47:14;13.77;;;1.90;;
75620;SDS011;64574;48.506;-2.750;2023-03-31T05:49:40;12.55;;;2.20;;
75620;SDS011;64574;48.506;-2.750;2023-03-31T05:52:06;14.75;;;1.90;;
75620;SDS011;64574;48.506;-2.750;2023-03-31T05:54:40;12.27;;;2.28;;
75620;SDS011;64574;48.506;-2.750;2023-03-31T05:57:06;10.30;;;1.85;;
75620;SDS011;64574;48.506;-2.750;2023-03-31T05:59:33;10.40;;;1.70;;
75620;SDS011;64574;48.506;-2.750;2023-03-31T06:02:00;11.50;;;2.10;;
75620;SDS011;64574;48.506;-2.750;2023-03-31T06:04:26;11.55;;;2.00;;
75620;SDS011;64574;48.506;-2.750;2023-03-31T06:06:52;11.35;;;2.45;;
75620;SDS011;64574;48.506;-2.750;2023-03-31T06:09:18;14.00;;;2.10;;
75620;SDS011;64574;48.506;-2.750;2023-03-31T06:11:44;16.17;;;2.45;;
75620;SDS011;64574;48.506;-2.750;2023-03-31T06:14:10;15.02;;;2.35;;
75620;SDS011;64574;48.506;-2.750;2023-03-31T06:16:36;22.73;;;3.45;;
75620;SDS011;64574;48.506;-2.750;2023-03-31T06:19:02;21.70;;;3.05;;
75620;SDS011;64574;48.506;-2.750;2023-03-31T06:21:27;19.35;;;2.63;;
75620;SDS011;64574;48.506;-2.750;2023-03-31T06:23:53;17.70;;;2.70;;
75620;SDS011;64574;48.506;-2.750;2023-03-31T06:26:20;11.73;;;2.10;;
75620;SDS011;64574;48.506;-2.750;2023-03-31T06:28:46;14.10;;;2.10;;
75620;SDS011;64574;48.506;-2.750;2023-03-31T06:31:13;19.30;;;2.70;;
75620;SDS011;64574;48.506;-2.750;2023-03-31T06:33:40;14.07;;;2.80;;
75620;SDS011;64574;48.506;-2.750;2023-03-31T06:36:07;11.75;;;2.60;;
75620;SDS011;64574;48.506;-2.750;2023-03-31T06:38:34;15.82;;;2.53;;
75620;SDS011;64574;48.506;-2.750;2023-03-31T06:41:02;14.07;;;2.15;;
75620;SDS011;64574;48.506;-2.750;2023-03-31T06:43:28;11.73;;;2.35;;
75620;SDS011;64574;48.506;-2.750;2023-03-31T06:45:54;13.88;;;1.70;;
75620;SDS011;64574;48.506;-2.750;2023-03-31T06:48:21;20.00;;;2.47;;
75620;SDS011;64574;48.506;-2.750;2023-03-31T06:50:47;15.00;;;2.90;;
75620;SDS011;64574;48.506;-2.750;2023-03-31T06:53:14;15.82;;;2.75;;
75620;SDS011;64574;48.506;-2.750;2023-03-31T06:55:40;16.48;;;2.88;;
75620;SDS011;64574;48.506;-2.750;2023-03-31T06:58:05;14.55;;;1.88;;
75620;SDS011;64574;48.506;-2.750;2023-03-31T07:00:31;13.35;;;3.08;;
75620;SDS011;64574;48.506;-2.750;2023-03-31T07:02:58;18.83;;;2.72;;
75620;SDS011;64574;48.506;-2.750;2023-03-31T07:05:25;18.30;;;2.75;;
75620;SDS011;64574;48.506;-2.750;2023-03-31T07:07:52;14.07;;;2.10;;
75620;SDS011;64574;48.506;-2.750;2023-03-31T07:10:18;16.60;;;2.58;;
75620;SDS011;64574;48.506;-2.750;2023-03-31T07:12:44;17.08;;;2.28;;
75620;SDS011;64574;48.506;-2.750;2023-03-31T07:15:10;15.48;;;2.17;;
75620;SDS011;64574;48.506;-2.750;2023-03-31T07:17:35;16.02;;;2.33;;
75620;SDS011;64574;48.506;-2.750;2023-03-31T07:20:02;15.25;;;2.30;;
75620;SDS011;64574;48.506;-2.750;2023-03-31T07:22:28;17.30;;;2.22;;
75620;SDS011;64574;48.506;-2.750;2023-03-31T07:24:54;18.95;;;2.65;;
75620;SDS011;64574;48.506;-2.750;2023-03-31T07:27:20;19.92;;;3.10;;
75620;SDS011;64574;48.506;-2.750;2023-03-31T07:29:46;20.27;;;3.75;;
75620;SDS011;64574;48.506;-2.750;2023-03-31T07:32:12;18.83;;;2.60;;
75620;SDS011;64574;48.506;-2.750;2023-03-31T07:34:37;15.20;;;2.50;;
75620;SDS011;64574;48.506;-2.750;2023-03-31T07:37:05;14.35;;;2.53;;
75620;SDS011;64574;48.506;-2.750;2023-03-31T07:39:31;13.45;;;2.35;;
75620;SDS011;64574;48.506;-2.750;2023-03-31T07:41:56;15.65;;;3.00;;
75620;SDS011;64574;48.506;-2.750;2023-03-31T07:44:22;13.38;;;2.45;;
75620;SDS011;64574;48.506;-2.750;2023-03-31T07:46:48;9.88;;;2.08;;
75620;SDS011;64574;48.506;-2.750;2023-03-31T07:49:13;16.58;;;2.58;;
75620;SDS011;64574;48.506;-2.750;2023-03-31T07:51:40;12.13;;;2.20;;
75620;SDS011;64574;48.506;-2.750;2023-03-31T07:54:06;15.30;;;2.75;;
75620;SDS011;64574;48.506;-2.750;2023-03-31T07:56:31;15.90;;;2.50;;
75620;SDS011;64574;48.506;-2.750;2023-03-31T07:58:57;13.13;;;2.00;;
75620;SDS011;64574;48.506;-2.750;2023-03-31T08:01:23;17.65;;;3.40;;
75620;SDS011;64574;48.506;-2.750;2023-03-31T08:03:50;11.93;;;1.65;;
75620;SDS011;64574;48.506;-2.750;2023-03-31T08:06:19;17.83;;;2.30;;
75620;SDS011;64574;48.506;-2.750;2023-03-31T08:08:47;10.10;;;1.60;;
75620;SDS011;64574;48.506;-2.750;2023-03-31T08:11:15;15.82;;;1.58;;
75620;SDS011;64574;48.506;-2.750;2023-03-31T08:13:42;10.95;;;1.95;;
75620;SDS011;64574;48.506;-2.750;2023-03-31T08:16:07;10.52;;;1.60;;
75620;SDS011;64574;48.506;-2.750;2023-03-31T08:18:33;9.80;;;1.58;;
75620;SDS011;64574;48.506;-2.750;2023-03-31T08:20:59;10.70;;;1.73;;
75620;SDS011;64574;48.506;-2.750;2023-03-31T08:23:25;18.88;;;2.20;;
75620;SDS011;64574;48.506;-2.750;2023-03-31T08:25:50;13.10;;;1.90;;
75620;SDS011;64574;48.506;-2.750;2023-03-31T08:28:16;13.77;;;1.92;;
75620;SDS011;64574;48.506;-2.750;2023-03-31T08:30:42;15.27;;;2.60;;
75620;SDS011;64574;48.506;-2.750;2023-03-31T08:33:08;16.23;;;2.50;;
75620;SDS011;64574;48.506;-2.750;2023-03-31T08:35:36;8.57;;;1.65;;
75620;SDS011;64574;48.506;-2.750;2023-03-31T08:38:02;16.38;;;2.63;;
75620;SDS011;64574;48.506;-2.750;2023-03-31T08:40:28;11.48;;;1.52;;
75620;SDS011;64574;48.506;-2.750;2023-03-31T08:42:57;10.77;;;2.40;;
75620;SDS011;64574;48.506;-2.750;2023-03-31T08:45:38;10.73;;;1.77;;
75620;SDS011;64574;48.506;-2.750;2023-03-31T08:50:57;13.30;;;1.73;;
75620;SDS011;64574;48.506;-2.750;2023-03-31T08:53:41;10.27;;;1.88;;
75620;SDS011;64574;48.506;-2.750;2023-03-31T08:56:15;14.45;;;1.90;;
75620;SDS011;64574;48.506;-2.750;2023-03-31T08:58:44;14.82;;;2.13;;
75620;SDS011;64574;48.506;-2.750;2023-03-31T09:10:16;9.90;;;1.77;;
75620;SDS011;64574;48.506;-2.750;2023-03-31T09:18:38;9.40;;;1.75;;
75620;SDS011;64574;48.506;-2.750;2023-03-31T09:23:50;13.65;;;2.33;;
75620;SDS011;64574;48.506;-2.750;2023-03-31T09:29:17;17.27;;;2.20;;
75620;SDS011;64574;48.506;-2.750;2023-03-31T09:32:00;16.92;;;2.38;;
75620;SDS011;64574;48.506;-2.750;2023-03-31T09:34:34;9.77;;;1.67;;
75620;SDS011;64574;48.506;-2.750;2023-03-31T09:37:00;13.55;;;2.25;;
75620;SDS011;64574;48.506;-2.750;2023-03-31T09:39:26;11.73;;;1.92;;
75620;SDS011;64574;48.506;-2.750;2023-03-31T09:41:52;12.77;;;1.83;;
75620;SDS011;64574;48.506;-2.750;2023-03-31T09:46:52;9.85;;;1.55;;
75620;SDS011;64574;48.506;-2.750;2023-03-31T09:49:24;8.25;;;1.38;;
75620;SDS011;64574;48.506;-2.750;2023-03-31T09:51:59;6.78;;;1.10;;
75620;SDS011;64574;48.506;-2.750;2023-03-31T09:54:40;5.70;;;1.05;;
75620;SDS011;64574;48.506;-2.750;2023-03-31T09:57:13;7.80;;;1.02;;
75620;SDS011;64574;48.506;-2.750;2023-03-31T09:59:46;11.90;;;2.20;;
75620;SDS011;64574;48.506;-2.750;2023-03-31T10:02:36;9.80;;;1.60;;
75620;SDS011;64574;48.506;-2.750;2023-03-31T10:05:03;10.02;;;1.80;;
75620;SDS011;64574;48.506;-2.750;2023-03-31T10:07:30;13.75;;;2.17;;
75620;SDS011;64574;48.506;-2.750;2023-03-31T10:09:57;8.32;;;2.88;;
75620;SDS011;64574;48.506;-2.750;2023-03-31T10:12:24;9.50;;;1.60;;
75620;SDS011;64574;48.506;-2.750;2023-03-31T10:14:53;12.38;;;1.63;;
75620;SDS011;64574;48.506;-2.750;2023-03-31T10:17:26;11.00;;;1.95;;
75620;SDS011;64574;48.506;-2.750;2023-03-31T10:19:58;10.32;;;1.77;;
75620;SDS011;64574;48.506;-2.750;2023-03-31T10:22:43;9.35;;;1.50;;
75620;SDS011;64574;48.506;-2.750;2023-03-31T10:25:14;11.75;;;1.88;;
75620;SDS011;64574;48.506;-2.750;2023-03-31T10:27:46;10.63;;;2.40;;
75620;SDS011;64574;48.506;-2.750;2023-03-31T10:30:16;11.15;;;1.98;;
75620;SDS011;64574;48.506;-2.750;2023-03-31T10:32:46;11.63;;;1.85;;
75620;SDS011;64574;48.506;-2.750;2023-03-31T10:37:47;8.70;;;1.80;;
75620;SDS011;64574;48.506;-2.750;2023-03-31T10:40:17;6.68;;;1.35;;
75620;SDS011;64574;48.506;-2.750;2023-03-31T10:42:46;9.98;;;1.70;;
75620;SDS011;64574;48.506;-2.750;2023-03-31T10:45:27;12.10;;;2.28;;
75620;SDS011;64574;48.506;-2.750;2023-03-31T10:47:56;15.73;;;1.80;;
75620;SDS011;64574;48.506;-2.750;2023-03-31T10:50:30;10.18;;;2.22;;
75620;SDS011;64574;48.506;-2.750;2023-03-31T10:53:13;10.10;;;1.85;;
75620;SDS011;64574;48.506;-2.750;2023-03-31T11:01:32;15.88;;;2.15;;
75620;SDS011;64574;48.506;-2.750;2023-03-31T11:12:55;12.77;;;1.77;;
75620;SDS011;64574;48.506;-2.750;2023-03-31T11:23:17;10.57;;;1.80;;
75620;SDS011;64574;48.506;-2.750;2023-03-31T11:26:08;11.73;;;1.60;;
75620;SDS011;64574;48.506;-2.750;2023-03-31T11:37:11;9.90;;;1.88;;
75620;SDS011;64574;48.506;-2.750;2023-03-31T11:39:59;13.63;;;2.25;;
75620;SDS011;64574;48.506;-2.750;2023-03-31T11:42:35;16.05;;;2.45;;
75620;SDS011;64574;48.506;-2.750;2023-03-31T11:45:17;12.73;;;2.15;;
75620;SDS011;64574;48.506;-2.750;2023-03-31T11:47:48;16.08;;;3.00;;
75620;SDS011;64574;48.506;-2.750;2023-03-31T11:50:27;14.43;;;2.10;;
75620;SDS011;64574;48.506;-2.750;2023-03-31T11:52:57;10.25;;;1.77;;
75620;SDS011;64574;48.506;-2.750;2023-03-31T11:55:27;12.93;;;1.80;;
75620;SDS011;64574;48.506;-2.750;2023-03-31T12:00:22;17.02;;;2.60;;
75620;SDS011;64574;48.506;-2.750;2023-03-31T12:02:58;12.55;;;1.90;;
75620;SDS011;64574;48.506;-2.750;2023-03-31T12:05:26;8.27;;;2.03;;
75620;SDS011;64574;48.506;-2.750;2023-03-31T12:08:00;11.45;;;2.53;;
75620;SDS011;64574;48.506;-2.750;2023-03-31T12:10:35;9.15;;;2.22;;
75620;SDS011;64574;48.506;-2.750;2023-03-31T12:13:11;13.32;;;2.80;;
75620;SDS011;64574;48.506;-2.750;2023-03-31T12:24:44;11.57;;;1.98;;
75620;SDS011;64574;48.506;-2.750;2023-03-31T12:32:30;9.07;;;1.60;;
75620;SDS011;64574;48.506;-2.750;2023-03-31T12:45:54;9.85;;;1.30;;
75620;SDS011;64574;48.506;-2.750;2023-03-31T12:48:37;11.82;;;1.73;;
75620;SDS011;64574;48.506;-2.750;2023-03-31T13:02:16;8.85;;;1.92;;
75620;SDS011;64574;48.506;-2.750;2023-03-31T13:04:46;11.05;;;1.65;;
75620;SDS011;64574;48.506;-2.750;2023-03-31T13:09:55;11.32;;;2.50;;
75620;SDS011;64574;48.506;-2.750;2023-03-31T13:12:41;19.02;;;1.80;;
75620;SDS011;64574;48.506;-2.750;2023-03-31T13:15:23;17.85;;;2.28;;
75620;SDS011;64574;48.506;-2.750;2023-03-31T13:17:59;13.13;;;1.95;;
75620;SDS011;64574;48.506;-2.750;2023-03-31T13:20:34;13.32;;;2.15;;
75620;SDS011;64574;48.506;-2.750;2023-03-31T13:28:32;11.13;;;1.45;;
75620;SDS011;64574;48.506;-2.750;2023-03-31T13:31:05;11.02;;;1.70;;
75620;SDS011;64574;48.506;-2.750;2023-03-31T13:52:08;9.43;;;1.50;;
75620;SDS011;64574;48.506;-2.750;2023-03-31T14:08:50;15.68;;;1.80;;
75620;SDS011;64574;48.506;-2.750;2023-03-31T14:11:23;13.80;;;2.28;;
75620;SDS011;64574;48.506;-2.750;2023-03-31T14:13:57;10.77;;;1.70;;
75620;SDS011;64574;48.506;-2.750;2023-03-31T14:16:44;14.48;;;1.77;;
75620;SDS011;64574;48.506;-2.750;2023-03-31T14:24:50;11.07;;;1.90;;
75620;SDS011;64574;48.506;-2.750;2023-03-31T14:38:26;12.18;;;1.42;;
75620;SDS011;64574;48.506;-2.750;2023-03-31T14:40:54;7.85;;;1.50;;
75620;SDS011;64574;48.506;-2.750;2023-03-31T14:43:22;6.88;;;1.42;;
75620;SDS011;64574;48.506;-2.750;2023-03-31T14:46:01;13.05;;;1.40;;
75620;SDS011;64574;48.506;-2.750;2023-03-31T14:48:33;11.10;;;2.38;;
75620;SDS011;64574;48.506;-2.750;2023-03-31T14:51:12;10.65;;;1.60;;
75620;SDS011;64574;48.506;-2.750;2023-03-31T14:53:40;8.90;;;1.42;;
75620;SDS011;64574;48.506;-2.750;2023-03-31T14:56:19;13.38;;;1.65;;
75620;SDS011;64574;48.506;-2.750;2023-03-31T14:58:52;9.40;;;1.83;;
75620;SDS011;64574;48.506;-2.750;2023-03-31T15:01:21;9.40;;;1.60;;
75620;SDS011;64574;48.506;-2.750;2023-03-31T15:03:50;9.35;;;1.25;;
75620;SDS011;64574;48.506;-2.750;2023-03-31T15:08:43;7.80;;;1.00;;
75620;SDS011;64574;48.506;-2.750;2023-03-31T15:11:16;8.32;;;1.45;;
75620;SDS011;64574;48.506;-2.750;2023-03-31T15:13:46;7.35;;;1.00;;
75620;SDS011;64574;48.506;-2.750;2023-03-31T15:19:28;9.23;;;2.20;;
75620;SDS011;64574;48.506;-2.750;2023-03-31T15:21:58;8.93;;;1.63;;
75620;SDS011;64574;48.506;-2.750;2023-03-31T15:24:40;9.00;;;1.10;;
75620;SDS011;64574;48.506;-2.750;2023-03-31T15:27:07;8.10;;;1.50;;
75620;SDS011;64574;48.506;-2.750;2023-03-31T15:29:42;9.20;;;2.03;;
75620;SDS011;64574;48.506;-2.750;2023-03-31T15:32:16;8.18;;;1.90;;
75620;SDS011;64574;48.506;-2.750;2023-03-31T15:34:56;8.00;;;1.13;;
75620;SDS011;64574;48.506;-2.750;2023-03-31T15:37:23;8.43;;;1.20;;
75620;SDS011;64574;48.506;-2.750;2023-03-31T15:39:56;9.10;;;1.33;;
75620;SDS011;64574;48.506;-2.750;2023-03-31T15:42:24;8.50;;;1.55;;
75620;SDS011;64574;48.506;-2.750;2023-03-31T15:44:55;5.63;;;1.17;;
75620;SDS011;64574;48.506;-2.750;2023-03-31T15:47:50;10.32;;;1.40;;
75620;SDS011;64574;48.506;-2.750;2023-03-31T15:50:17;11.35;;;1.98;;
75620;SDS011;64574;48.506;-2.750;2023-03-31T15:52:49;15.05;;;1.95;;
75620;SDS011;64574;48.506;-2.750;2023-03-31T15:55:23;11.90;;;2.33;;
75620;SDS011;64574;48.506;-2.750;2023-03-31T15:57:52;10.27;;;1.52;;
75620;SDS011;64574;48.506;-2.750;2023-03-31T16:05:54;7.38;;;1.10;;
75620;SDS011;64574;48.506;-2.750;2023-03-31T16:11:08;8.10;;;1.63;;
75620;SDS011;64574;48.506;-2.750;2023-03-31T16:13:38;11.75;;;2.35;;
75620;SDS011;64574;48.506;-2.750;2023-03-31T16:16:08;7.25;;;1.60;;
75620;SDS011;64574;48.506;-2.750;2023-03-31T16:18:41;9.70;;;1.58;;
75620;SDS011;64574;48.506;-2.750;2023-03-31T16:21:23;8.38;;;1.58;;
75620;SDS011;64574;48.506;-2.750;2023-03-31T16:23:53;6.03;;;1.13;;
75620;SDS011;64574;48.506;-2.750;2023-03-31T16:26:22;9.45;;;1.27;;
75620;SDS011;64574;48.506;-2.750;2023-03-31T16:28:50;9.35;;;1.38;;
75620;SDS011;64574;48.506;-2.750;2023-03-31T16:31:28;8.70;;;1.40;;
75620;SDS011;64574;48.506;-2.750;2023-03-31T16:34:05;10.60;;;1.90;;
75620;SDS011;64574;48.506;-2.750;2023-03-31T16:36:32;10.20;;;2.10;;
75620;SDS011;64574;48.506;-2.750;2023-03-31T16:38:59;12.02;;;1.80;;
75620;SDS011;64574;48.506;-2.750;2023-03-31T16:41:28;12.48;;;1.95;;
75620;SDS011;64574;48.506;-2.750;2023-03-31T16:43:55;15.30;;;1.98;;
75620;SDS011;64574;48.506;-2.750;2023-03-31T16:46:21;11.40;;;1.95;;
75620;SDS011;64574;48.506;-2.750;2023-03-31T16:48:47;13.70;;;1.77;;
75620;SDS011;64574;48.506;-2.750;2023-03-31T16:51:13;17.40;;;2.05;;
75620;SDS011;64574;48.506;-2.750;2023-03-31T16:53:39;10.65;;;2.00;;
75620;SDS011;64574;48.506;-2.750;2023-03-31T16:56:06;9.25;;;1.45;;
75620;SDS011;64574;48.506;-2.750;2023-03-31T16:58:32;7.93;;;1.38;;
75620;SDS011;64574;48.506;-2.750;2023-03-31T17:00:59;10.57;;;1.95;;
75620;SDS011;64574;48.506;-2.750;2023-03-31T17:03:25;12.68;;;1.80;;
75620;SDS011;64574;48.506;-2.750;2023-03-31T17:05:51;13.40;;;2.15;;
75620;SDS011;64574;48.506;-2.750;2023-03-31T17:08:19;10.48;;;2.05;;
75620;SDS011;64574;48.506;-2.750;2023-03-31T17:10:53;7.65;;;1.40;;
75620;SDS011;64574;48.506;-2.750;2023-03-31T17:13:28;11.18;;;1.90;;
75620;SDS011;64574;48.506;-2.750;2023-03-31T17:15:54;14.65;;;1.80;;
75620;SDS011;64574;48.506;-2.750;2023-03-31T17:18:23;13.00;;;1.77;;
75620;SDS011;64574;48.506;-2.750;2023-03-31T17:20:50;12.20;;;1.75;;
75620;SDS011;64574;48.506;-2.750;2023-03-31T17:23:18;9.68;;;1.75;;
75620;SDS011;64574;48.506;-2.750;2023-03-31T17:25:47;7.47;;;1.67;;
75620;SDS011;64574;48.506;-2.750;2023-03-31T17:28:13;7.47;;;1.80;;
75620;SDS011;64574;48.506;-2.750;2023-03-31T17:30:39;10.13;;;1.60;;
75620;SDS011;64574;48.506;-2.750;2023-03-31T17:33:08;7.68;;;1.33;;
75620;SDS011;64574;48.506;-2.750;2023-03-31T17:35:34;14.65;;;1.70;;
75620;SDS011;64574;48.506;-2.750;2023-03-31T17:37:59;17.73;;;2.05;;
75620;SDS011;64574;48.506;-2.750;2023-03-31T17:40:25;16.98;;;1.85;;
75620;SDS011;64574;48.506;-2.750;2023-03-31T17:42:51;11.38;;;1.70;;
75620;SDS011;64574;48.506;-2.750;2023-03-31T17:45:18;11.07;;;1.75;;
75620;SDS011;64574;48.506;-2.750;2023-03-31T17:47:43;13.80;;;2.17;;
75620;SDS011;64574;48.506;-2.750;2023-03-31T17:50:10;7.82;;;1.70;;
75620;SDS011;64574;48.506;-2.750;2023-03-31T17:52:36;12.18;;;1.92;;
75620;SDS011;64574;48.506;-2.750;2023-03-31T17:55:03;9.85;;;1.63;;
75620;SDS011;64574;48.506;-2.750;2023-03-31T17:57:29;10.18;;;1.80;;
75620;SDS011;64574;48.506;-2.750;2023-03-31T17:59:55;13.65;;;1.92;;
75620;SDS011;64574;48.506;-2.750;2023-03-31T18:02:21;9.55;;;1.92;;
75620;SDS011;64574;48.506;-2.750;2023-03-31T18:04:48;10.98;;;1.65;;
75620;SDS011;64574;48.506;-2.750;2023-03-31T18:07:13;15.52;;;2.20;;
75620;SDS011;64574;48.506;-2.750;2023-03-31T18:09:41;12.05;;;2.05;;
75620;SDS011;64574;48.506;-2.750;2023-03-31T18:12:07;15.85;;;2.00;;
75620;SDS011;64574;48.506;-2.750;2023-03-31T18:14:33;9.30;;;1.75;;
75620;SDS011;64574;48.506;-2.750;2023-03-31T18:16:59;10.05;;;1.75;;